createdAt,value
2018-07-08T00:00:57.815Z,16.73
2018-07-08T00:03:29.615Z,16.49
2018-07-08T00:06:02.557Z,16.60
2018-07-08T00:08:36.047Z,16.60
2018-07-08T00:11:09.233Z,16.55
2018-07-08T00:13:40.677Z,16.63
2018-07-08T00:16:14.122Z,16.56
2018-07-08T00:18:48.857Z,16.50
2018-07-08T00:21:20.623Z,16.58
2018-07-08T00:23:52.083Z,16.43
2018-07-08T00:26:25.234Z,16.34
2018-07-08T00:28:57.384Z,16.24
2018-07-08T00:31:27.593Z,16.15
2018-07-08T00:34:00.757Z,16.03
2018-07-08T00:36:32.399Z,15.87
2018-07-08T00:39:04.470Z,15.79
2018-07-08T00:41:34.420Z,15.66
2018-07-08T00:44:08.219Z,15.64
2018-07-08T00:46:41.252Z,15.63
2018-07-08T00:49:13.407Z,15.67
2018-07-08T00:51:43.536Z,15.75
2018-07-08T00:54:15.149Z,15.69
2018-07-08T00:56:48.787Z,15.71
2018-07-08T00:59:20.714Z,15.64
2018-07-08T01:01:53.124Z,15.39
2018-07-08T01:04:23.829Z,15.49
2018-07-08T01:06:58.819Z,15.39
2018-07-08T01:09:33.754Z,15.39
2018-07-08T01:12:03.746Z,15.30
2018-07-08T01:14:37.998Z,15.23
2018-07-08T01:17:10.037Z,15.18
2018-07-08T01:19:43.143Z,15.06
2018-07-08T01:22:13.218Z,15.12
2018-07-08T01:24:46.597Z,15.13
2018-07-08T01:27:18.336Z,15.06
2018-07-08T01:29:49.921Z,15.18
2018-07-08T01:32:23.102Z,15.19
2018-07-08T01:34:53.227Z,15.26
2018-07-08T01:37:25.318Z,15.16
2018-07-08T01:39:58.522Z,15.15
2018-07-08T01:42:33.930Z,15.17
2018-07-08T01:45:05.598Z,15.03
2018-07-08T01:47:38.572Z,14.95
2018-07-08T01:50:10.715Z,14.88
2018-07-08T01:52:43.672Z,14.91
2018-07-08T01:55:15.408Z,14.89
2018-07-08T01:57:50.394Z,14.98
2018-07-08T02:00:21.879Z,14.96
2018-07-08T02:02:56.524Z,14.90
2018-07-08T02:05:29.853Z,14.93
2018-07-08T02:08:03.243Z,14.91
2018-07-08T02:10:36.206Z,14.88
2018-07-08T02:13:07.812Z,14.95
2018-07-08T02:15:42.603Z,14.89
2018-07-08T02:18:15.747Z,14.84
2018-07-08T02:20:47.535Z,14.84
2018-07-08T02:23:20.919Z,14.82
2018-07-08T02:25:52.526Z,14.95
2018-07-08T02:28:22.449Z,14.86
2018-07-08T02:30:54.487Z,14.86
2018-07-08T02:33:24.181Z,14.86
2018-07-08T02:35:54.234Z,14.82
2018-07-08T02:38:27.462Z,14.81
2018-07-08T02:40:58.998Z,14.75
2018-07-08T02:43:30.614Z,14.69
2018-07-08T02:46:02.327Z,14.67
2018-07-08T02:48:35.533Z,14.62
2018-07-08T02:51:07.136Z,14.59
2018-07-08T02:53:40.984Z,14.49
2018-07-08T02:56:12.926Z,14.54
2018-07-08T02:58:46.219Z,14.55
2018-07-08T03:01:17.905Z,14.59
2018-07-08T03:03:47.992Z,14.61
2018-07-08T03:06:21.363Z,14.58
2018-07-08T03:08:51.873Z,14.56
2018-07-08T03:11:22.354Z,14.61
2018-07-08T03:13:55.195Z,14.74
2018-07-08T03:16:28.798Z,14.81
2018-07-08T03:19:00.318Z,14.77
2018-07-08T03:21:33.056Z,14.80
2018-07-08T03:24:05.783Z,14.88
2018-07-08T03:26:37.741Z,14.88
2018-07-08T03:29:10.974Z,14.92
2018-07-08T03:31:43.533Z,14.79
2018-07-08T03:34:15.547Z,14.74
2018-07-08T03:36:46.050Z,14.79
2018-07-08T03:39:17.577Z,14.89
2018-07-08T03:41:48.260Z,15.04
2018-07-08T03:44:21.852Z,15.42
2018-07-08T03:46:53.383Z,15.81
2018-07-08T03:49:24.925Z,15.78
2018-07-08T03:51:58.047Z,15.81
2018-07-08T03:54:32.047Z,15.84
2018-07-08T03:57:02.566Z,16.01
2018-07-08T03:59:37.346Z,16.21
2018-07-08T04:02:10.648Z,16.31
2018-07-08T04:04:42.077Z,16.42
2018-07-08T04:07:15.295Z,16.52
2018-07-08T04:09:46.898Z,16.65
2018-07-08T04:12:18.573Z,17.02
2018-07-08T04:14:50.200Z,17.09
2018-07-08T04:17:20.379Z,17.22
2018-07-08T04:19:51.998Z,17.21
2018-07-08T04:22:25.010Z,17.78
2018-07-08T04:24:58.001Z,17.90
2018-07-08T04:27:32.151Z,18.05
2018-07-08T04:30:05.046Z,18.23
2018-07-08T04:32:38.324Z,18.89
2018-07-08T04:35:08.752Z,19.10
2018-07-08T04:37:40.191Z,19.07
2018-07-08T04:40:10.326Z,19.62
2018-07-08T04:42:41.998Z,19.95
2018-07-08T04:45:13.419Z,20.39
2018-07-08T04:47:46.377Z,20.66
2018-07-08T04:50:19.482Z,20.65
2018-07-08T04:52:54.210Z,20.74
2018-07-08T04:55:24.181Z,20.68
2018-07-08T04:57:57.185Z,20.74
2018-07-08T05:00:30.037Z,21.75
2018-07-08T05:03:03.796Z,21.58
2018-07-08T05:05:35.803Z,21.53
2018-07-08T05:08:07.243Z,22.49
2018-07-08T05:10:38.935Z,21.91
2018-07-08T05:13:12.285Z,21.98
2018-07-08T05:15:45.751Z,22.67
2018-07-08T05:18:17.286Z,22.51
2018-07-08T05:20:48.777Z,23.49
2018-07-08T05:23:19.081Z,23.35
2018-07-08T05:25:52.194Z,22.99
2018-07-08T05:28:21.400Z,23.13
2018-07-08T05:30:54.729Z,23.07
2018-07-08T05:33:24.844Z,22.93
2018-07-08T05:35:59.763Z,23.16
2018-07-08T05:38:31.204Z,23.90
2018-07-08T05:41:02.712Z,24.08
2018-07-08T05:43:32.692Z,24.17
2018-07-08T05:46:04.075Z,23.99
2018-07-08T05:48:36.974Z,23.84
2018-07-08T05:51:08.570Z,24.30
2018-07-08T05:53:42.260Z,24.78
2018-07-08T05:56:14.346Z,24.23
2018-07-08T05:58:46.025Z,24.67
2018-07-08T06:01:18.783Z,24.79
2018-07-08T06:03:51.785Z,24.59
2018-07-08T06:06:24.753Z,25.32
2018-07-08T06:08:56.215Z,24.53
2018-07-08T06:11:29.759Z,25.08
2018-07-08T06:14:02.829Z,24.23
2018-07-08T06:16:36.254Z,24.68
2018-07-08T06:19:09.238Z,25.45
2018-07-08T06:21:43.619Z,26.25
2018-07-08T06:24:13.724Z,24.66
2018-07-08T06:26:43.826Z,25.06
2018-07-08T06:29:14.763Z,24.85
2018-07-08T06:31:46.821Z,24.32
2018-07-08T06:34:19.685Z,23.37
2018-07-08T06:36:51.127Z,24.76
2018-07-08T06:39:24.008Z,25.25
2018-07-08T06:41:58.396Z,25.71
2018-07-08T06:44:29.843Z,25.91
2018-07-08T06:47:03.312Z,25.67
2018-07-08T06:49:36.231Z,25.53
2018-07-08T06:52:09.275Z,25.68
2018-07-08T06:54:40.600Z,25.96
2018-07-08T06:57:12.017Z,26.31
2018-07-08T06:59:46.875Z,27.15
2018-07-08T07:02:19.746Z,26.48
2018-07-08T07:04:51.137Z,26.60
2018-07-08T07:07:24.131Z,26.80
2018-07-08T07:09:56.966Z,27.21
2018-07-08T07:12:29.776Z,27.00
2018-07-08T07:15:04.225Z,26.84
2018-07-08T07:17:33.519Z,27.35
2018-07-08T07:20:03.429Z,27.88
2018-07-08T07:22:37.647Z,27.39
2018-07-08T07:25:12.390Z,27.96
2018-07-08T07:27:45.288Z,27.29
2018-07-08T07:30:18.190Z,28.01
2018-07-08T07:32:51.185Z,29.08
2018-07-08T07:35:24.086Z,29.12
2018-07-08T07:37:58.521Z,28.07
2018-07-08T07:40:31.446Z,27.27
2018-07-08T07:43:02.023Z,27.05
2018-07-08T07:45:36.280Z,27.61
2018-07-08T07:48:09.861Z,28.15
2018-07-08T07:50:42.728Z,28.58
2018-07-08T07:53:12.387Z,28.30
2018-07-08T07:55:43.903Z,27.94
2018-07-08T07:58:15.281Z,27.72
2018-07-08T08:00:46.636Z,27.94
2018-07-08T08:03:18.023Z,28.01
2018-07-08T08:05:52.515Z,28.28
2018-07-08T08:08:24.042Z,28.31
2018-07-08T08:10:58.378Z,28.12
2018-07-08T08:13:31.248Z,26.88
2018-07-08T08:16:04.085Z,28.01
2018-07-08T08:18:37.276Z,28.25
2018-07-08T08:21:10.976Z,27.99
2018-07-08T08:23:43.848Z,27.93
2018-07-08T08:26:15.820Z,28.45
2018-07-08T08:28:48.726Z,28.24
2018-07-08T08:31:23.458Z,29.31
2018-07-08T08:34:42.089Z,29.19
2018-07-08T08:37:15.031Z,26.94
2018-07-08T08:39:48.039Z,28.88
2018-07-08T08:42:19.619Z,29.05
2018-07-08T08:44:55.135Z,29.18
2018-07-08T08:47:28.348Z,29.42
2018-07-08T08:50:01.276Z,28.90
2018-07-08T08:52:31.875Z,29.29
2018-07-08T08:55:04.593Z,29.27
2018-07-08T08:57:38.978Z,28.20
2018-07-08T09:00:21.838Z,28.71
2018-07-08T09:02:53.841Z,29.25
2018-07-08T09:05:27.015Z,29.11
2018-07-08T09:07:59.488Z,29.63
2018-07-08T09:10:32.420Z,30.00
2018-07-08T09:13:05.280Z,30.40
2018-07-08T09:15:38.559Z,30.10
2018-07-08T09:18:12.995Z,29.47
2018-07-08T09:20:44.607Z,29.92
2018-07-08T09:23:18.908Z,29.60
2018-07-08T09:25:50.290Z,29.69
2018-07-08T09:28:21.716Z,29.37
2018-07-08T09:30:53.242Z,28.33
2018-07-08T09:33:27.942Z,28.59
2018-07-08T09:36:00.929Z,29.10
2018-07-08T09:38:32.511Z,28.61
2018-07-08T09:41:03.880Z,28.93
2018-07-08T09:43:35.294Z,29.28
2018-07-08T09:46:06.786Z,28.97
2018-07-08T09:48:38.226Z,28.50
2018-07-08T09:51:09.623Z,28.75
2018-07-08T09:53:40.120Z,29.79
2018-07-08T09:56:13.358Z,29.73
2018-07-08T09:58:44.773Z,29.11
2018-07-08T10:01:19.431Z,29.62
2018-07-08T10:03:52.549Z,29.14
2018-07-08T10:06:25.569Z,29.30
2018-07-08T10:08:58.130Z,28.40
2018-07-08T10:11:32.320Z,28.55
2018-07-08T10:14:05.277Z,28.67
2018-07-08T10:16:36.573Z,28.79
2018-07-08T10:19:08.072Z,27.80
2018-07-08T10:21:40.419Z,28.26
2018-07-08T10:24:14.833Z,28.22
2018-07-08T10:26:47.296Z,28.18
2018-07-08T10:29:21.819Z,28.29
2018-07-08T10:31:55.723Z,28.49
2018-07-08T10:34:27.267Z,29.27
2018-07-08T10:36:58.701Z,29.30
2018-07-08T10:39:31.811Z,29.14
2018-07-08T10:42:05.080Z,27.95
2018-07-08T10:44:36.369Z,29.08
2018-07-08T10:47:08.844Z,28.94
2018-07-08T10:49:43.167Z,28.41
2018-07-08T10:52:16.199Z,28.67
2018-07-08T10:54:49.168Z,28.23
2018-07-08T10:57:22.467Z,27.80
2018-07-08T10:59:55.503Z,27.50
2018-07-08T11:02:28.915Z,27.12
2018-07-08T11:05:00.441Z,28.06
2018-07-08T11:07:33.705Z,27.76
2018-07-08T11:10:03.078Z,26.64
2018-07-08T11:12:36.190Z,27.22
2018-07-08T11:15:09.451Z,27.10
2018-07-08T11:17:43.712Z,26.46
2018-07-08T11:20:16.604Z,25.62
2018-07-08T11:22:50.178Z,26.21
2018-07-08T11:25:23.288Z,27.13
2018-07-08T11:27:55.336Z,27.14
2018-07-08T11:30:28.147Z,27.37
2018-07-08T11:33:01.459Z,27.93
2018-07-08T11:35:34.400Z,27.38
2018-07-08T11:38:06.102Z,27.26
2018-07-08T11:40:39.169Z,27.39
2018-07-08T11:43:09.864Z,27.78
2018-07-08T11:45:44.670Z,27.51
2018-07-08T11:48:19.019Z,27.84
2018-07-08T11:50:51.535Z,28.59
2018-07-08T11:53:21.468Z,28.24
2018-07-08T11:55:55.789Z,28.16
2018-07-08T11:58:27.725Z,28.21
2018-07-08T12:00:59.113Z,27.23
2018-07-08T12:03:30.975Z,26.88
2018-07-08T12:06:02.450Z,27.58
2018-07-08T12:08:32.512Z,27.17
2018-07-08T12:11:05.453Z,27.18
2018-07-08T12:13:37.099Z,27.42
2018-07-08T12:16:10.017Z,27.36
2018-07-08T12:18:41.463Z,27.00
2018-07-08T12:21:14.877Z,27.60
2018-07-08T12:23:46.278Z,27.31
2018-07-08T12:26:17.701Z,27.28
2018-07-08T12:28:51.530Z,27.95
2018-07-08T12:31:24.688Z,27.20
2018-07-08T12:33:58.997Z,26.76
2018-07-08T12:36:31.823Z,26.53
2018-07-08T12:39:06.773Z,26.39
2018-07-08T12:41:41.308Z,27.12
2018-07-08T12:44:15.106Z,27.18
2018-07-08T12:46:49.366Z,26.75
2018-07-08T12:49:22.254Z,26.98
2018-07-08T12:51:53.634Z,26.81
2018-07-08T12:54:26.701Z,26.60
2018-07-08T12:56:58.617Z,26.48
2018-07-08T12:59:30.128Z,27.04
2018-07-08T13:02:03.098Z,26.68
2018-07-08T13:04:36.028Z,26.87
2018-07-08T13:07:08.988Z,26.73
2018-07-08T13:09:40.859Z,26.72
2018-07-08T13:12:15.673Z,26.76
2018-07-08T13:14:47.573Z,26.43
2018-07-08T13:17:18.567Z,26.50
2018-07-08T13:19:51.489Z,26.35
2018-07-08T13:22:24.311Z,26.55
2018-07-08T13:24:56.639Z,26.56
2018-07-08T13:27:29.597Z,26.67
2018-07-08T13:30:01.031Z,26.79
2018-07-08T13:32:32.848Z,26.93
2018-07-08T13:35:03.342Z,26.40
2018-07-08T13:37:33.817Z,26.58
2018-07-08T13:40:05.777Z,26.45
2018-07-08T13:42:35.722Z,26.66
2018-07-08T13:45:07.185Z,26.74
2018-07-08T13:47:38.547Z,26.43
2018-07-08T13:50:11.815Z,26.53
2018-07-08T13:52:45.247Z,26.67
2018-07-08T13:55:15.349Z,26.48
2018-07-08T13:57:46.983Z,26.38
2018-07-08T14:00:18.512Z,26.24
2018-07-08T14:02:48.653Z,26.51
2018-07-08T14:05:19.344Z,26.47
2018-07-08T14:07:52.683Z,26.16
2018-07-08T14:10:22.612Z,26.03
2018-07-08T14:12:54.072Z,26.15
2018-07-08T14:15:25.549Z,26.18
2018-07-08T14:17:58.279Z,26.16
2018-07-08T14:20:32.765Z,26.15
2018-07-08T14:23:06.404Z,25.89
2018-07-08T14:25:41.168Z,25.82
2018-07-08T14:28:12.784Z,26.08
2018-07-08T14:30:47.232Z,25.88
2018-07-08T14:33:21.507Z,26.09
2018-07-08T14:35:55.934Z,25.83
2018-07-08T14:38:27.364Z,25.61
2018-07-08T14:40:57.849Z,25.86
2018-07-08T14:43:31.020Z,25.89
2018-07-08T14:46:03.925Z,26.31
2018-07-08T14:48:35.414Z,26.08
2018-07-08T14:51:07.251Z,25.87
2018-07-08T14:53:39.430Z,25.54
2018-07-08T14:56:10.750Z,25.73
2018-07-08T14:58:45.111Z,25.77
2018-07-08T15:01:17.971Z,25.56
2018-07-08T15:03:50.879Z,25.56
2018-07-08T15:06:23.707Z,25.49
2018-07-08T15:08:56.969Z,25.44
2018-07-08T15:11:29.443Z,25.33
2018-07-08T15:14:02.320Z,25.30
2018-07-08T15:16:36.705Z,25.38
2018-07-08T15:19:09.592Z,25.49
2018-07-08T15:21:44.102Z,25.62
2018-07-08T15:24:19.505Z,25.67
2018-07-08T15:26:53.949Z,25.61
2018-07-08T15:29:28.207Z,25.32
2018-07-08T15:32:01.079Z,25.10
2018-07-08T15:34:32.876Z,25.01
2018-07-08T15:37:05.686Z,25.15
2018-07-08T15:39:37.581Z,25.07
2018-07-08T15:42:09.586Z,25.15
2018-07-08T15:44:42.897Z,25.41
2018-07-08T15:47:15.852Z,25.22
2018-07-08T15:49:47.265Z,25.20
2018-07-08T15:52:18.729Z,24.97
2018-07-08T15:54:51.596Z,25.23
2018-07-08T15:57:25.939Z,25.28
2018-07-08T15:59:55.974Z,25.23
2018-07-08T16:02:28.941Z,25.25
2018-07-08T16:05:00.934Z,25.15
2018-07-08T16:07:34.892Z,25.07
2018-07-08T16:10:05.942Z,24.89
2018-07-08T16:12:37.477Z,24.58
2018-07-08T16:15:10.723Z,24.53
2018-07-08T16:17:43.572Z,24.61
2018-07-08T16:20:15.121Z,24.53
2018-07-08T16:22:49.031Z,24.54
2018-07-08T16:25:22.017Z,24.38
2018-07-08T16:27:54.421Z,24.27
2018-07-08T16:30:25.797Z,24.08
2018-07-08T16:32:58.818Z,24.09
2018-07-08T16:35:30.277Z,24.10
2018-07-08T16:38:03.211Z,24.26
2018-07-08T16:40:33.657Z,24.16
2018-07-08T16:43:06.263Z,24.43
2018-07-08T16:45:40.645Z,24.33
2018-07-08T16:48:15.151Z,24.28
2018-07-08T16:50:50.289Z,24.06
2018-07-08T16:53:20.228Z,23.87
2018-07-08T16:55:51.703Z,23.73
2018-07-08T16:58:24.680Z,23.88
2018-07-08T17:00:57.443Z,23.85
2018-07-08T17:03:29.559Z,23.76
2018-07-08T17:05:59.640Z,23.69
2018-07-08T17:08:31.680Z,23.58
2018-07-08T17:11:05.073Z,23.53
2018-07-08T17:13:37.891Z,23.50
2018-07-08T17:16:12.318Z,23.61
2018-07-08T17:18:44.224Z,23.56
2018-07-08T17:21:15.834Z,23.23
2018-07-08T17:23:48.866Z,23.22
2018-07-08T17:26:20.482Z,23.37
2018-07-08T17:28:53.097Z,23.38
2018-07-08T17:31:24.749Z,23.32
2018-07-08T17:33:56.103Z,23.23
2018-07-08T17:36:29.090Z,23.12
2018-07-08T17:39:02.024Z,23.13
2018-07-08T17:41:32.195Z,23.02
2018-07-08T17:44:03.612Z,23.01
2018-07-08T17:46:38.535Z,23.00
2018-07-08T17:49:09.859Z,22.99
2018-07-08T17:51:42.840Z,22.88
2018-07-08T17:54:14.804Z,22.78
2018-07-08T17:56:48.692Z,22.70
2018-07-08T17:59:21.991Z,22.81
2018-07-08T18:01:54.899Z,22.64
2018-07-08T18:04:26.372Z,22.88
2018-07-08T18:07:00.830Z,22.82
2018-07-08T18:09:33.097Z,22.73
2018-07-08T18:12:04.918Z,22.65
2018-07-08T18:14:36.475Z,22.45
2018-07-08T18:17:06.497Z,22.37
2018-07-08T18:19:36.588Z,22.35
2018-07-08T18:22:09.705Z,22.14
2018-07-08T18:24:42.776Z,22.30
2018-07-08T18:27:15.881Z,22.27
2018-07-08T18:29:49.413Z,22.14
2018-07-08T18:32:20.861Z,22.15
2018-07-08T18:34:55.329Z,22.03
2018-07-08T18:37:29.019Z,21.95
2018-07-08T18:39:59.590Z,21.79
2018-07-08T18:42:32.692Z,22.01
2018-07-08T18:45:02.798Z,21.91
2018-07-08T18:47:32.992Z,21.89
2018-07-08T18:50:05.192Z,21.78
2018-07-08T18:52:39.768Z,21.80
2018-07-08T18:55:13.292Z,21.77
2018-07-08T18:57:45.345Z,21.84
2018-07-08T19:00:19.037Z,21.66
2018-07-08T19:02:53.531Z,21.69
2018-07-08T19:05:28.414Z,21.57
2018-07-08T19:07:58.430Z,21.40
2018-07-08T19:10:32.432Z,21.34
2018-07-08T19:13:06.622Z,21.17
2018-07-08T19:15:41.062Z,21.22
2018-07-08T19:18:14.845Z,21.17
2018-07-08T19:20:49.351Z,21.02
2018-07-08T19:23:23.112Z,20.95
2018-07-08T19:25:57.010Z,20.92
2018-07-08T19:28:30.616Z,20.95
2018-07-08T19:31:02.341Z,20.86
2018-07-08T19:33:36.228Z,20.77
2018-07-08T19:36:10.659Z,20.78
2018-07-08T19:38:43.499Z,20.71
2018-07-08T19:41:14.981Z,20.58
2018-07-08T19:43:46.452Z,20.51
2018-07-08T19:46:16.764Z,20.43
2018-07-08T19:48:51.123Z,20.35
2018-07-08T19:51:24.180Z,20.34
2018-07-08T19:53:57.721Z,20.20
2018-07-08T19:56:31.603Z,20.05
2018-07-08T19:59:04.970Z,20.08
2018-07-08T20:01:39.567Z,20.00
2018-07-08T20:04:11.040Z,20.04
2018-07-08T20:06:46.107Z,19.95
2018-07-08T20:09:20.505Z,19.74
2018-07-08T20:11:52.532Z,19.94
2018-07-08T20:14:24.249Z,19.92
2018-07-08T20:16:57.258Z,19.88
2018-07-08T20:19:29.086Z,19.91
2018-07-08T20:22:00.424Z,19.85
2018-07-08T20:24:33.419Z,19.78
2018-07-08T20:27:06.466Z,19.66
2018-07-08T20:29:37.891Z,19.64
2018-07-08T20:32:08.341Z,19.64
2018-07-08T20:34:42.841Z,19.53
2018-07-08T20:37:14.504Z,19.52
2018-07-08T20:39:47.702Z,19.47
2018-07-08T20:42:22.766Z,19.42
2018-07-08T20:44:55.832Z,19.37
2018-07-08T20:47:28.851Z,19.14
2018-07-08T20:50:03.238Z,19.14
2018-07-08T20:52:35.045Z,19.06
2018-07-08T20:55:09.446Z,18.99
2018-07-08T20:57:44.366Z,19.00
2018-07-08T21:00:18.888Z,19.06
2018-07-08T21:02:51.947Z,19.02
2018-07-08T21:05:25.490Z,18.91
2018-07-08T21:07:58.964Z,19.04
2018-07-08T21:10:34.135Z,18.93
2018-07-08T21:13:07.205Z,18.96
2018-07-08T21:15:38.830Z,18.86
2018-07-08T21:18:10.487Z,18.84
2018-07-08T21:20:41.432Z,18.75
2018-07-08T21:23:15.892Z,18.73
2018-07-08T21:25:50.334Z,18.77
2018-07-08T21:28:21.719Z,18.53
2018-07-08T21:30:53.552Z,18.57
2018-07-08T21:33:28.358Z,18.60
2018-07-08T21:36:01.337Z,18.55
2018-07-08T21:38:32.791Z,18.40
2018-07-08T21:41:05.839Z,18.47
2018-07-08T21:43:36.969Z,18.39
2018-07-08T21:46:07.065Z,18.26
2018-07-08T21:48:41.134Z,18.36
2018-07-08T21:51:12.616Z,18.30
2018-07-08T21:53:45.759Z,18.38
2018-07-08T21:56:18.433Z,18.32
2018-07-08T21:58:51.421Z,18.26
2018-07-08T22:01:26.359Z,18.21
2018-07-08T22:03:59.998Z,18.17
2018-07-08T22:06:31.576Z,18.17
2018-07-08T22:09:02.675Z,18.24
2018-07-08T22:11:35.603Z,18.19
2018-07-08T22:14:09.263Z,18.24
2018-07-08T22:16:40.801Z,18.12
2018-07-08T22:19:12.416Z,18.08
2018-07-08T22:21:45.611Z,18.10
2018-07-08T22:24:17.242Z,18.07
2018-07-08T22:26:51.285Z,18.04
2018-07-08T22:29:24.299Z,18.06
2018-07-08T22:31:58.753Z,18.05
2018-07-08T22:34:30.303Z,17.97
2018-07-08T22:37:01.763Z,17.93
2018-07-08T22:39:36.387Z,17.89
2018-07-08T22:42:11.032Z,17.94
2018-07-08T22:44:43.972Z,17.76
2018-07-08T22:47:16.954Z,17.75
2018-07-08T22:49:49.009Z,17.61
2018-07-08T22:52:23.395Z,17.63
2018-07-08T22:54:58.094Z,17.66
2018-07-08T22:57:31.714Z,17.53
2018-07-08T23:00:38.882Z,17.60
2018-07-08T23:03:44.223Z,17.62
2018-07-08T23:06:17.637Z,17.58
2018-07-08T23:08:48.475Z,17.40
2018-07-08T23:11:22.589Z,17.43
2018-07-08T23:13:58.224Z,17.38
2018-07-08T23:16:32.370Z,17.23
2018-07-08T23:19:03.875Z,17.08
2018-07-08T23:21:38.727Z,17.16
2018-07-08T23:24:11.868Z,17.32
2018-07-08T23:26:43.643Z,17.33
2018-07-08T23:29:15.322Z,17.31
2018-07-08T23:31:48.957Z,17.20
2018-07-08T23:34:20.650Z,17.19
2018-07-08T23:36:52.033Z,17.24
2018-07-08T23:39:25.906Z,17.23
2018-07-08T23:41:57.097Z,17.28
2018-07-08T23:44:31.069Z,17.16
2018-07-08T23:47:04.165Z,17.24
2018-07-08T23:49:38.339Z,17.19
2018-07-08T23:52:13.170Z,17.26
2018-07-08T23:54:45.113Z,17.39
2018-07-08T23:57:18.268Z,17.17
2018-07-08T23:59:52.360Z,17.21
